Startpagina
METAR-TAF:

METAR-TAF

Vliegvelden :

Gibraltar, Gibraltar

Gibraltar Airport

breedte: 36-09N, lengte: 005-21W, hoogte: 5 m

Actueel weer

Dit bericht is 40 minuten geleden gemaakt, om 03:50 UTC
Wind 7 kt uit het westzuidwesten
Temperatuur 10°C
Vochtigheid 82%
Druk 1026 hPa
Zicht 10 km of meer

METAR: LXGB 140350Z AUTO 24007KT 9999 // NCD 10/07 Q1026

Tijdstip: 05:30 (04:30 UTC)

Verwachting

Dit bericht is 11 uur en het 53 minuten geleden gemaakt, om 16:37 UTC
Verwachting geldig van 13 om 18 UTC tot 13 om 22 UTC
Wind 10 kt uit het oosten
Zicht 10 km of meer
Weinig wolken op 1500 ft
Wijzigt naar
van 13 om 18 UTC tot 13 om 21 UTC
Wind 3 kt uit het westnoordwesten

TAF: LXGB 131637Z 1318/1322 08010KT 9999 FEW015 BECMG 1318/1321 30003KT

Waarnemingen en weersverwachtingen van meer dan 4000 vliegvelden (METAR en TAF).

De beschikbare stations zijn de gele en rode punten op de kaart.

Ga met uw muis naar het station om de naam te zien.

Klik dan om waarnemingen en weersverwachtingen te zien.

kaart wijzigen: klik op de groene knoppen met een zwart kruis om in te zoomen, op de groene knop met een streepje om uit te zoomen of op de groene pijlen voor aangrenzende kaarten.


METAR-TAF: